Time;durP1;ratioP1;P1;durP2;ratioP2;P2;SDS_P1;SDS_P2;PMS_P1;PMS_P2;Temp;Humidity;BMP_temperature;BMP_pressure;BME280_temperature;BME280_humidity;BME280_pressure;Samples;Min_cycle;Max_cycle;Signal;HPM_P1;HPM_P2
2022/12/03 00:01:23;;;;;;;;;;;;;;;-147.11;100.00;61570.13;5047289;28;20034;-59
2022/12/03 00:03:48;;;;;;;;;;;;;;;-147.11;100.00;61570.13;5053279;28;19960;-58
2022/12/03 00:06:13;;;;;;;;;;;;;;;-147.11;100.00;61570.13;5051461;28;20295;-62
2022/12/03 00:08:38;;;;;;;;;;;;;;;-147.11;100.00;61570.13;5053138;28;19975;-61
2022/12/03 00:11:04;;;;;;;;;;;;;;;-147.11;100.00;61570.13;5051701;28;20630;-63
2022/12/03 00:13:29;;;;;;;;;;;;;;;-147.11;100.00;61570.13;5051358;28;19928;-63
2022/12/03 00:15:54;;;;;;;;;;;;;;;-147.11;100.00;61570.13;5054927;28;19983;-60
2022/12/03 00:18:20;;;;;;;;;;;;;;;-147.11;100.00;61570.13;5055464;28;19966;-63
2022/12/03 00:20:45;;;;;;;;;;;;;;;-147.11;100.00;61570.13;5058154;28;21083;-63
2022/12/03 00:23:10;;;;;;;;;;;;;;;-147.11;100.00;61570.13;5048975;28;19928;-63
2022/12/03 00:25:36;;;;;;;;;;;;;;;-147.11;100.00;61570.13;5045998;28;19928;-63
2022/12/03 00:28:01;;;;;;;;;;;;;;;-147.11;100.00;61570.13;5053404;28;19928;-63
2022/12/03 00:30:26;;;;;;;;;;;;;;;-147.11;100.00;61570.13;5055421;28;20014;-63
2022/12/03 00:32:51;;;;;;;;;;;;;;;-147.11;100.00;61570.13;5050720;28;19921;-60
2022/12/03 00:35:17;;;;;;;;;;;;;;;-147.11;100.00;61570.13;5051963;28;20319;-63
2022/12/03 00:37:42;;;;;;;;;;;;;;;-147.11;100.00;61570.13;5048687;28;19928;-63
2022/12/03 00:40:09;;;;;;;;;;;;;;;-147.11;100.00;61570.13;5049824;28;19936;-62
2022/12/03 00:42:34;;;;;;;;;;;;;;;-147.11;100.00;61570.13;5052807;28;20012;-62
2022/12/03 00:45:00;;;;;;;;;;;;;;;-147.11;100.00;61570.13;5050604;28;20015;-63
2022/12/03 00:47:25;;;;;;;;;;;;;;;-147.11;100.00;61570.13;5053201;28;19959;-62
2022/12/03 00:49:50;;;;;;;;;;;;;;;-147.11;100.00;61570.13;5050935;28;20004;-61
2022/12/03 00:52:15;;;;;;;;;;;;;;;-147.11;100.00;61570.13;5034421;28;19928;-62
2022/12/03 00:54:41;;;;;;;;;;;;;;;-147.11;100.00;61570.13;5049830;28;19921;-62
2022/12/03 00:57:06;;;;;;;;;;;;;;;-147.11;100.00;61570.13;5049475;28;20380;-63
2022/12/03 00:59:31;;;;;;;;;;;;;;;-147.11;100.00;61570.13;5051890;28;19940;-62
2022/12/03 01:01:57;;;;;;;;;;;;;;;-147.11;100.00;61570.13;5051538;28;20012;-62
2022/12/03 01:04:22;;;;;;;;;;;;;;;-147.11;100.00;61570.13;5049171;28;20319;-63
2022/12/03 01:06:47;;;;;;;;;;;;;;;-147.11;100.00;61570.13;5035364;28;20437;-63
2022/12/03 01:09:13;;;;;;;;;;;;;;;-147.11;100.00;61570.13;5053758;28;20364;-63
2022/12/03 01:11:38;;;;;;;;;;;;;;;-147.11;100.00;61570.13;5051819;28;19967;-63
2022/12/03 01:14:08;;;;;;;;;;;;;;;-147.11;100.00;61570.13;5035466;28;19921;-61
2022/12/03 01:16:33;;;;;;;;;;;;;;;-147.11;100.00;61570.13;5048407;28;19927;-63
2022/12/03 01:18:59;;;;;;;;;;;;;;;-147.11;100.00;61570.13;5047244;28;19916;-62
2022/12/03 01:21:24;;;;;;;;;;;;;;;-147.11;100.00;61570.13;5056446;28;19928;-60
2022/12/03 01:23:49;;;;;;;;;;;;;;;-147.11;100.00;61570.13;5054159;28;19921;-61
2022/12/03 01:26:15;;;;;;;;;;;;;;;-147.11;100.00;61570.13;5043512;28;19932;-63
2022/12/03 01:28:43;;;;;;;;;;;;;;;-147.11;100.00;61570.13;5048546;28;19920;-62
2022/12/03 01:33:52;;;;;;;;;;;;;;;-147.11;100.00;61570.13;5046408;28;19959;-62
2022/12/03 01:36:17;;;;;;;;;;;;;;;-147.11;100.00;61570.13;5047978;28;19956;-64
2022/12/03 01:38:42;;;;;;;;;;;;;;;-147.11;100.00;61570.13;5051839;28;20403;-60
2022/12/03 01:41:08;;;;;;;;;;;;;;;-147.11;100.00;61570.13;5046828;28;19921;-61
2022/12/03 01:43:33;;;;;;;;;;;;;;;-147.11;100.00;61570.13;5017040;28;19927;-61
2022/12/03 01:45:59;;;;;;;;;;;;;;;-147.11;100.00;61570.13;5049844;28;19939;-63
2022/12/03 01:48:24;;;;;;;;;;;;;;;-147.11;100.00;61570.13;5031298;28;20016;-62
2022/12/03 01:50:50;;;;;;;;;;;;;;;-147.11;100.00;61570.13;5038917;28;19995;-60
2022/12/03 01:53:17;;;;;;;;;;;;;;;-147.11;100.00;61570.13;5046854;28;19924;-58
2022/12/03 01:55:43;;;;;;;;;;;;;;;-147.11;100.00;61570.13;5046293;28;19929;-63
2022/12/03 01:58:11;;;;;;;;;;;;;;;-147.11;100.00;61570.13;5043958;28;19928;-61
2022/12/03 02:00:37;;;;;;;;;;;;;;;-147.11;100.00;61570.13;5045011;28;19916;-62
2022/12/03 02:03:06;;;;;;;;;;;;;;;-147.11;100.00;61570.13;5045941;28;19932;-62
2022/12/03 02:05:32;;;;;;;;;;;;;;;-147.11;100.00;61570.13;5045549;28;19921;-61
2022/12/03 02:07:58;;;;;;;;;;;;;;;-147.11;100.00;61570.13;5052973;28;19917;-60
2022/12/03 02:10:25;;;;;;;;;;;;;;;-147.11;100.00;61570.13;5046562;28;19947;-62
2022/12/03 02:12:53;;;;;;;;;;;;;;;-147.11;100.00;61570.13;5048444;28;19921;-58
2022/12/03 02:15:19;;;;;;;;;;;;;;;-147.11;100.00;61570.13;5047903;28;19974;-61
2022/12/03 02:17:44;;;;;;;;;;;;;;;-147.11;100.00;61570.13;5047813;28;19924;-61
2022/12/03 02:20:10;;;;;;;;;;;;;;;-147.11;100.00;61570.13;5054257;28;19935;-61
2022/12/03 02:22:42;;;;;;;;;;;;;;;-147.11;100.00;61570.13;5048643;28;20007;-61
2022/12/03 02:25:09;;;;;;;;;;;;;;;-147.11;100.00;61570.13;5047211;28;19932;-59
2022/12/03 02:27:34;;;;;;;;;;;;;;;-147.11;100.00;61570.13;5043214;28;19917;-59
2022/12/03 02:29:59;;;;;;;;;;;;;;;-147.11;100.00;61570.13;5052985;28;19978;-60
2022/12/03 02:32:25;;;;;;;;;;;;;;;-147.11;100.00;61570.13;5054745;28;19967;-59
2022/12/03 02:34:50;;;;;;;;;;;;;;;-147.11;100.00;61570.13;5047857;28;19982;-63
2022/12/03 02:37:22;;;;;;;;;;;;;;;-147.11;100.00;61570.13;5049523;28;19921;-61
2022/12/03 02:39:50;;;;;;;;;;;;;;;-147.11;100.00;61570.13;5047515;28;19924;-60
2022/12/03 02:42:34;;;;;;;;;;;;;;;-147.11;100.00;61570.13;5046775;28;19960;-60
2022/12/03 02:45:02;;;;;;;;;;;;;;;-147.11;100.00;61570.13;5045945;28;19924;-58
2022/12/03 02:47:28;;;;;;;;;;;;;;;-147.11;100.00;61570.13;5050328;28;19921;-61
2022/12/03 02:49:54;;;;;;;;;;;;;;;-147.11;100.00;61570.13;5049450;28;19920;-59
2022/12/03 02:52:19;;;;;;;;;;;;;;;-147.11;100.00;61570.13;5046567;28;19924;-61
2022/12/03 02:54:45;;;;;;;;;;;;;;;-147.11;100.00;61570.13;5046381;28;19928;-59
2022/12/03 02:57:10;;;;;;;;;;;;;;;-147.11;100.00;61570.13;5046204;28;20486;-61
2022/12/03 02:59:35;;;;;;;;;;;;;;;-147.11;100.00;61570.13;5050355;28;19920;-58
2022/12/03 03:02:01;;;;;;;;;;;;;;;-147.11;100.00;61570.13;5032204;28;20386;-61
2022/12/03 03:04:26;;;;;;;;;;;;;;;-147.11;100.00;61570.13;5046333;28;19928;-63
2022/12/03 03:06:52;;;;;;;;;;;;;;;-147.11;100.00;61570.13;5042100;28;19952;-60
2022/12/03 03:09:17;;;;;;;;;;;;;;;-147.11;100.00;61570.13;5050411;28;19917;-60
2022/12/03 03:11:43;;;;;;;;;;;;;;;-147.11;100.00;61570.13;5042825;28;19921;-61
2022/12/03 03:14:08;;;;;;;;;;;;;;;-147.11;100.00;61570.13;5053815;28;19966;-63
2022/12/03 03:16:33;;;;;;;;;;;;;;;-147.11;100.00;61570.13;5046613;28;19921;-61
2022/12/03 03:18:59;;;;;;;;;;;;;;;-147.11;100.00;61570.13;5050083;28;20399;-63
2022/12/03 03:21:25;;;;;;;;;;;;;;;-147.11;100.00;61570.13;5049407;28;19912;-61
2022/12/03 03:23:50;;;;;;;;;;;;;;;-147.11;100.00;61570.13;5047589;28;20022;-61
2022/12/03 03:26:15;;;;;;;;;;;;;;;-147.11;100.00;61570.13;5045934;28;20414;-62
2022/12/03 03:28:46;;;;;;;;;;;;;;;-147.11;100.00;61570.13;5028866;28;19933;-61
2022/12/03 03:31:14;;;;;;;;;;;;;;;-147.11;100.00;61570.13;5001243;28;19917;-59
2022/12/03 03:33:40;;;;;;;;;;;;;;;-147.11;100.00;61570.13;5043368;28;19921;-60
2022/12/03 03:36:06;;;;;;;;;;;;;;;-147.11;100.00;61570.13;5044088;28;20016;-63
2022/12/03 03:38:31;;;;;;;;;;;;;;;-147.11;100.00;61570.13;5053880;28;20313;-60
2022/12/03 03:40:58;;;;;;;;;;;;;;;-147.11;100.00;61570.13;5045799;28;19925;-59
2022/12/03 03:43:23;;;;;;;;;;;;;;;-147.11;100.00;61570.13;5046466;28;19921;-60
2022/12/03 03:45:49;;;;;;;;;;;;;;;-147.11;100.00;61570.13;5044744;28;19939;-58
2022/12/03 03:48:14;;;;;;;;;;;;;;;-147.11;100.00;61570.13;5047379;28;20371;-59
2022/12/03 03:50:41;;;;;;;;;;;;;;;-147.11;100.00;61570.13;5049508;28;19921;-60
2022/12/03 03:53:06;;;;;;;;;;;;;;;-147.11;100.00;61570.13;5048670;28;19921;-61
2022/12/03 03:55:32;;;;;;;;;;;;;;;-147.11;100.00;61570.13;5030431;28;20014;-59
2022/12/03 03:57:57;;;;;;;;;;;;;;;-147.11;100.00;61570.13;5046615;28;19933;-61
2022/12/03 04:00:23;;;;;;;;;;;;;;;-147.11;100.00;61570.13;5047877;28;19925;-61
2022/12/03 04:02:48;;;;;;;;;;;;;;;-147.11;100.00;61570.13;5052066;28;19951;-61
2022/12/03 04:05:19;;;;;;;;;;;;;;;-147.11;100.00;61570.13;5048432;28;19921;-58
2022/12/03 04:07:44;;;;;;;;;;;;;;;-147.11;100.00;61570.13;5049960;28;20364;-58
2022/12/03 04:12:56;;;;;;;;;;;;;;;-147.11;100.00;61570.13;5049419;28;20015;-61
2022/12/03 04:15:22;;;;;;;;;;;;;;;-147.11;100.00;61570.13;5037068;28;20388;-59
2022/12/03 04:20:33;;;;;;;;;;;;;;;-147.11;100.00;61570.13;5004169;28;19927;-61
2022/12/03 04:22:59;;;;;;;;;;;;;;;-147.11;100.00;61570.13;5054894;28;19916;-60
2022/12/03 04:30:52;;;;;;;;;;;;;;;-147.11;100.00;61570.13;5050622;28;19928;-60
2022/12/03 04:36:01;;;;;;;;;;;;;;;-147.11;100.00;61570.13;5070027;23;19932;-63
2022/12/03 04:38:26;;;;;;;;;;;;;;;-147.11;100.00;61570.13;5086326;28;19920;-63
2022/12/03 04:41:02;;;;;;;;;;;;;;;-147.11;100.00;61570.13;5085689;28;19955;-64
2022/12/03 04:43:29;;;;;;;;;;;;;;;-147.11;100.00;61570.13;5081364;28;19982;-63
2022/12/03 04:45:54;;;;;;;;;;;;;;;-147.11;100.00;61570.13;5085375;28;20679;-63
2022/12/03 04:48:19;;;;;;;;;;;;;;;-147.11;100.00;61570.13;5089795;28;19920;-62
2022/12/03 04:50:45;;;;;;;;;;;;;;;-147.11;100.00;61570.13;5082397;28;19927;-63
2022/12/03 04:53:10;;;;;;;;;;;;;;;-147.11;100.00;61570.13;5085065;28;19924;-63
2022/12/03 04:55:35;;;;;;;;;;;;;;;-147.11;100.00;61570.13;5088498;28;19927;-63
2022/12/03 04:58:01;;;;;;;;;;;;;;;-147.11;100.00;61570.13;5085137;28;20348;-61
2022/12/03 05:00:26;;;;;;;;;;;;;;;-147.11;100.00;61570.13;5081158;28;24573;-63
2022/12/03 05:02:51;;;;;;;;;;;;;;;-147.11;100.00;61570.13;5056487;28;19924;-63
2022/12/03 05:05:17;;;;;;;;;;;;;;;-147.11;100.00;61570.13;5087502;28;20442;-61
2022/12/03 05:07:42;;;;;;;;;;;;;;;-147.11;100.00;61570.13;5063157;28;19932;-60
2022/12/03 05:10:08;;;;;;;;;;;;;;;-147.11;100.00;61570.13;5066276;28;19916;-65
2022/12/03 05:12:33;;;;;;;;;;;;;;;-147.11;100.00;61570.13;5078728;28;19969;-62
2022/12/03 05:14:59;;;;;;;;;;;;;;;-147.11;100.00;61570.13;5082815;28;19968;-61
2022/12/03 05:17:24;;;;;;;;;;;;;;;-147.11;100.00;61570.13;5084278;28;19916;-63
2022/12/03 05:22:33;;;;;;;;;;;;;;;-147.11;100.00;61570.13;5085606;28;19975;-60
2022/12/03 05:24:58;;;;;;;;;;;;;;;-147.11;100.00;61570.13;5091065;28;19947;-64
2022/12/03 05:27:24;;;;;;;;;;;;;;;-147.11;100.00;61570.13;5083825;28;20314;-63
2022/12/03 05:29:49;;;;;;;;;;;;;;;-147.11;100.00;61570.13;5086701;28;19935;-63
2022/12/03 05:32:15;;;;;;;;;;;;;;;-147.11;100.00;61570.13;5084321;28;19920;-63
2022/12/03 05:34:40;;;;;;;;;;;;;;;-147.11;100.00;61570.13;5084645;28;19920;-62
2022/12/03 05:37:05;;;;;;;;;;;;;;;-147.11;100.00;61570.13;5089346;28;19920;-61
2022/12/03 05:39:31;;;;;;;;;;;;;;;-147.11;100.00;61570.13;5086820;28;20010;-61
2022/12/03 05:44:40;;;;;;;;;;;;;;;-147.11;100.00;61570.13;5085986;28;20000;-59
2022/12/03 05:47:05;;;;;;;;;;;;;;;-147.11;100.00;61570.13;5089401;28;19920;-64
2022/12/03 05:49:31;;;;;;;;;;;;;;;-147.11;100.00;61570.13;5083093;28;20401;-60
2022/12/03 05:51:56;;;;;;;;;;;;;;;-147.11;100.00;61570.13;5082138;28;19973;-62
2022/12/03 05:54:21;;;;;;;;;;;;;;;-147.11;100.00;61570.13;5080984;28;19924;-62
2022/12/03 05:56:46;;;;;;;;;;;;;;;-147.11;100.00;61570.13;5083997;28;20294;-61
2022/12/03 05:59:12;;;;;;;;;;;;;;;-147.11;100.00;61570.13;5089060;28;19993;-62
2022/12/03 06:01:37;;;;;;;;;;;;;;;-147.11;100.00;61570.13;5084050;28;20047;-62
2022/12/03 06:04:03;;;;;;;;;;;;;;;-147.11;100.00;61570.13;5085034;28;19962;-62
2022/12/03 06:06:28;;;;;;;;;;;;;;;-147.11;100.00;61570.13;5081661;28;19928;-64
2022/12/03 06:08:53;;;;;;;;;;;;;;;-147.11;100.00;61570.13;5087037;28;20481;-62
2022/12/03 06:11:19;;;;;;;;;;;;;;;-147.11;100.00;61570.13;5084067;28;19965;-64
2022/12/03 06:13:44;;;;;;;;;;;;;;;-147.11;100.00;61570.13;5086811;28;19943;-63
2022/12/03 06:16:09;;;;;;;;;;;;;;;-147.11;100.00;61570.13;5086743;28;19974;-61
2022/12/03 06:18:35;;;;;;;;;;;;;;;-147.11;100.00;61570.13;5085418;28;19930;-63
2022/12/03 06:21:00;;;;;;;;;;;;;;;-147.11;100.00;61570.13;5087537;28;19967;-61
2022/12/03 06:23:25;;;;;;;;;;;;;;;-147.11;100.00;61570.13;5091152;28;19912;-63
2022/12/03 06:25:51;;;;;;;;;;;;;;;-147.11;100.00;61570.13;5083904;28;19916;-63
2022/12/03 06:28:16;;;;;;;;;;;;;;;-147.11;100.00;61570.13;5084770;28;19970;-59
2022/12/03 06:30:41;;;;;;;;;;;;;;;-147.11;100.00;61570.13;5085966;28;19924;-63
2022/12/03 06:33:07;;;;;;;;;;;;;;;-147.11;100.00;61570.13;5080736;28;19943;-58
2022/12/03 06:35:48;;;;;;;;;;;;;;;-147.11;100.00;61570.13;5040297;28;20234;-61
2022/12/03 06:38:13;;;;;;;;;;;;;;;-147.11;100.00;61570.13;5081744;28;20294;-61
2022/12/03 06:40:39;;;;;;;;;;;;;;;-147.11;100.00;61570.13;5085287;28;19966;-61
2022/12/03 06:43:04;;;;;;;;;;;;;;;-147.11;100.00;61570.13;5082784;28;19956;-60
2022/12/03 06:45:29;;;;;;;;;;;;;;;-147.11;100.00;61570.13;5087263;28;20046;-61
2022/12/03 06:47:54;;;;;;;;;;;;;;;-147.11;100.00;61570.13;5081605;28;19927;-64
2022/12/03 06:50:20;;;;;;;;;;;;;;;-147.11;100.00;61570.13;5078360;28;19924;-62
2022/12/03 06:52:45;;;;;;;;;;;;;;;-147.11;100.00;61570.13;5073836;28;19948;-63
2022/12/03 06:55:10;;;;;;;;;;;;;;;-147.11;100.00;61570.13;5083024;28;19921;-64
2022/12/03 06:57:36;;;;;;;;;;;;;;;-147.11;100.00;61570.13;5076715;28;19921;-63
2022/12/03 07:00:03;;;;;;;;;;;;;;;-147.11;100.00;61570.13;5089441;28;19916;-61
2022/12/03 07:02:28;;;;;;;;;;;;;;;-147.11;100.00;61570.13;5075735;28;19925;-63
2022/12/03 07:04:53;;;;;;;;;;;;;;;-147.11;100.00;61570.13;5087137;28;19920;-61
2022/12/03 07:07:19;;;;;;;;;;;;;;;-147.11;100.00;61570.13;5080822;28;19966;-64
2022/12/03 07:09:44;;;;;;;;;;;;;;;-147.11;100.00;61570.13;5083745;28;19924;-60
2022/12/03 07:12:09;;;;;;;;;;;;;;;-147.11;100.00;61570.13;5079408;28;19916;-63
2022/12/03 07:14:35;;;;;;;;;;;;;;;-147.11;100.00;61570.13;5067091;28;19935;-64
2022/12/03 07:17:00;;;;;;;;;;;;;;;-147.11;100.00;61570.13;5084440;28;19970;-63
2022/12/03 07:19:25;;;;;;;;;;;;;;;-147.11;100.00;61570.13;5083143;28;19951;-64
2022/12/03 07:21:51;;;;;;;;;;;;;;;-147.11;100.00;61570.13;5064992;28;20444;-64
2022/12/03 07:24:16;;;;;;;;;;;;;;;-147.11;100.00;61570.13;5082288;28;19924;-63
2022/12/03 07:26:41;;;;;;;;;;;;;;;-147.11;100.00;61570.13;5082005;28;19917;-64
2022/12/03 07:29:07;;;;;;;;;;;;;;;-147.11;100.00;61570.13;5082894;28;19935;-63
2022/12/03 07:31:32;;;;;;;;;;;;;;;-147.11;100.00;61570.13;5086170;28;19917;-64
2022/12/03 07:33:57;;;;;;;;;;;;;;;-147.11;100.00;61570.13;5066508;28;19919;-64
2022/12/03 07:36:23;;;;;;;;;;;;;;;-147.11;100.00;61570.13;5060739;28;19924;-62
2022/12/03 07:38:48;;;;;;;;;;;;;;;-147.11;100.00;61570.13;5083136;28;19924;-64
2022/12/03 07:41:13;;;;;;;;;;;;;;;-147.11;100.00;61570.13;5081973;28;19926;-60
2022/12/03 07:43:39;;;;;;;;;;;;;;;-147.11;100.00;61570.13;5083614;28;20441;-61
2022/12/03 07:46:04;;;;;;;;;;;;;;;-147.11;100.00;61570.13;5085448;28;19916;-62
2022/12/03 07:48:29;;;;;;;;;;;;;;;-147.11;100.00;61570.13;5085380;28;20007;-62
2022/12/03 07:50:55;;;;;;;;;;;;;;;-147.11;100.00;61570.13;5083352;28;19912;-63
2022/12/03 07:53:20;;;;;;;;;;;;;;;-147.11;100.00;61570.13;5086194;28;19999;-64
2022/12/03 07:55:45;;;;;;;;;;;;;;;-147.11;100.00;61570.13;5084588;28;19939;-64
2022/12/03 07:58:11;;;;;;;;;;;;;;;-147.11;100.00;61570.13;5084251;28;19922;-61
2022/12/03 08:00:36;;;;;;;;;;;;;;;-147.11;100.00;61570.13;5082718;28;19920;-61
2022/12/03 08:03:01;;;;;;;;;;;;;;;-147.11;100.00;61570.13;5084656;28;19925;-64
2022/12/03 08:05:28;;;;;;;;;;;;;;;-147.11;100.00;61570.13;5074791;28;19912;-62
2022/12/03 08:07:53;;;;;;;;;;;;;;;-147.11;100.00;61570.13;5091811;28;19946;-62
2022/12/03 08:10:19;;;;;;;;;;;;;;;-147.11;100.00;61570.13;5086005;28;20473;-62
2022/12/03 08:12:44;;;;;;;;;;;;;;;-147.11;100.00;61570.13;5091843;28;19924;-61
2022/12/03 08:15:10;;;;;;;;;;;;;;;-147.11;100.00;61570.13;5084438;28;19999;-62
2022/12/03 08:17:35;;;;;;;;;;;;;;;-147.11;100.00;61570.13;5068199;28;19923;-58
2022/12/03 08:20:01;;;;;;;;;;;;;;;-147.11;100.00;61570.13;5090804;28;19915;-61
2022/12/03 08:22:26;;;;;;;;;;;;;;;-147.11;100.00;61570.13;5081127;28;20002;-63
2022/12/03 08:24:51;;;;;;;;;;;;;;;-147.11;100.00;61570.13;5084991;28;20029;-59
2022/12/03 08:27:18;;;;;;;;;;;;;;;-147.11;100.00;61570.13;5089284;28;19923;-61
2022/12/03 08:29:43;;;;;;;;;;;;;;;-147.11;100.00;61570.13;5089945;28;19919;-60
2022/12/03 08:32:12;;;;;;;;;;;;;;;-147.11;100.00;61570.13;5086671;28;19920;-61
2022/12/03 08:34:39;;;;;;;;;;;;;;;-147.11;100.00;61570.13;5082879;28;20322;-62
2022/12/03 08:37:08;;;;;;;;;;;;;;;-147.11;100.00;61570.13;5091094;28;19916;-63
2022/12/03 08:39:34;;;;;;;;;;;;;;;-147.11;100.00;61570.13;5086720;28;19912;-61
2022/12/03 08:45:16;;;;;;;;;;;;;;;-147.11;100.00;61570.13;5083594;28;20310;-58
2022/12/03 08:47:41;;;;;;;;;;;;;;;-147.11;100.00;61570.13;5089716;28;19955;-60
2022/12/03 08:50:27;;;;;;;;;;;;;;;-147.11;100.00;61570.13;5078679;28;19959;-61
2022/12/03 08:52:56;;;;;;;;;;;;;;;-147.11;100.00;61570.13;5084469;28;19920;-61
2022/12/03 08:55:31;;;;;;;;;;;;;;;-147.11;100.00;61570.13;5064488;28;19920;-60
2022/12/03 08:57:57;;;;;;;;;;;;;;;-147.11;100.00;61570.13;5079792;28;20028;-60
2022/12/03 09:00:23;;;;;;;;;;;;;;;-147.11;100.00;61570.13;5087867;28;20002;-61
2022/12/03 09:02:50;;;;;;;;;;;;;;;-147.11;100.00;61570.13;5087445;28;19959;-59
2022/12/03 09:05:18;;;;;;;;;;;;;;;-147.11;100.00;61570.13;5088661;28;20382;-62
2022/12/03 09:07:43;;;;;;;;;;;;;;;-147.11;100.00;61570.13;5087325;28;19920;-62
2022/12/03 09:10:09;;;;;;;;;;;;;;;-147.11;100.00;61570.13;5088711;28;19930;-61
2022/12/03 09:12:34;;;;;;;;;;;;;;;-147.11;100.00;61570.13;5088002;28;19912;-64
2022/12/03 09:14:59;;;;;;;;;;;;;;;-147.11;100.00;61570.13;5085150;28;19970;-61
2022/12/03 09:17:25;;;;;;;;;;;;;;;-147.11;100.00;61570.13;5087827;28;20530;-62
2022/12/03 09:19:50;;;;;;;;;;;;;;;-147.11;100.00;61570.13;5088105;28;19959;-60
2022/12/03 09:22:16;;;;;;;;;;;;;;;-147.11;100.00;61570.13;5083575;28;19966;-62
2022/12/03 09:24:41;;;;;;;;;;;;;;;-147.11;100.00;61570.13;5078066;28;19955;-60
2022/12/03 09:27:07;;;;;;;;;;;;;;;-147.11;100.00;61570.13;5085916;28;19916;-61
2022/12/03 09:29:32;;;;;;;;;;;;;;;-147.11;100.00;61570.13;5070614;28;20378;-62
2022/12/03 09:31:57;;;;;;;;;;;;;;;-147.11;100.00;61570.13;5064321;28;20411;-61
2022/12/03 09:34:22;;;;;;;;;;;;;;;-147.11;100.00;61570.13;5072101;28;20072;-62
2022/12/03 09:36:48;;;;;;;;;;;;;;;-147.11;100.00;61570.13;5085139;28;19927;-61
2022/12/03 09:39:13;;;;;;;;;;;;;;;-147.11;100.00;61570.13;5080741;28;19928;-61
2022/12/03 09:41:38;;;;;;;;;;;;;;;-147.11;100.00;61570.13;5081945;28;19924;-62
2022/12/03 09:44:04;;;;;;;;;;;;;;;-147.11;100.00;61570.13;5085755;28;20438;-61
2022/12/03 09:46:29;;;;;;;;;;;;;;;-147.11;100.00;61570.13;5087787;28;19930;-60
2022/12/03 09:48:55;;;;;;;;;;;;;;;-147.11;100.00;61570.13;5083276;28;19916;-64
2022/12/03 09:51:21;;;;;;;;;;;;;;;-147.11;100.00;61570.13;5076022;28;20414;-61
2022/12/03 09:53:47;;;;;;;;;;;;;;;-147.11;100.00;61570.13;5063283;28;20011;-62
2022/12/03 09:56:15;;;;;;;;;;;;;;;-147.11;100.00;61570.13;5080620;28;20572;-64
2022/12/03 09:58:41;;;;;;;;;;;;;;;-147.11;100.00;61570.13;5082576;28;19924;-63
2022/12/03 10:01:12;;;;;;;;;;;;;;;-147.11;100.00;61570.13;5084250;28;20314;-58
2022/12/03 10:03:41;;;;;;;;;;;;;;;-147.11;100.00;61570.13;5072547;28;19946;-61
2022/12/03 10:06:09;;;;;;;;;;;;;;;-147.11;100.00;61570.13;5076133;28;20282;-58
2022/12/03 10:08:34;;;;;;;;;;;;;;;2.03;66.56;102371.78;5083128;28;19924;-61
2022/12/03 10:10:59;;;;;;;;;;;;;;;2.05;66.04;102364.84;5082273;28;20298;-62
2022/12/03 10:13:26;;;;;;;;;;;;;;;2.14;65.78;102366.59;5087990;28;19920;-61
2022/12/03 10:15:54;;;;;;;;;;;;;;;2.25;65.31;102369.25;5087139;28;20399;-64
2022/12/03 10:18:24;;;;;;;;;;;;;;;2.28;64.96;102359.72;5083016;28;19952;-64
2022/12/03 10:20:50;;;;;;;;;;;;;;;2.35;65.06;102355.41;5060466;28;19920;-63
2022/12/03 10:23:34;;;;;;;;;;;;;;;2.48;65.17;102348.53;5081357;28;19920;-63
2022/12/03 10:26:01;;;;;;;;;;;;;;;2.54;64.69;102352.84;5077712;28;20211;-63
2022/12/03 10:28:37;;;;;;;;;;;;;;;2.59;64.50;102351.16;5078822;28;19939;-64
2022/12/03 10:31:04;;;;;;;;;;;;;;;2.64;63.83;102344.22;5085237;28;19920;-64
2022/12/03 10:33:35;;;;;;;;;;;;;;;2.69;64.08;102347.69;5078929;28;20386;-63
2022/12/03 10:36:23;;;;;;;;;;;;;;;2.63;63.80;102342.50;5084261;28;19959;-53
2022/12/03 10:39:04;;;;;;;;;;;;;;;2.55;63.34;102341.59;5072586;28;19916;-55
2022/12/03 10:41:30;;;;;;;;;;;;;;;2.53;63.66;102332.94;5076576;28;19935;-55
2022/12/03 10:44:09;;;;;;;;;;;;;;;2.52;63.79;102332.06;5072776;28;19916;-51
2022/12/03 10:46:35;;;;;;;;;;;;;;;2.51;63.95;102334.66;5071286;28;19916;-55
2022/12/03 10:49:08;;;;;;;;;;;;;;;2.46;64.01;102328.59;5083581;28;19931;-55
2022/12/03 10:51:34;;;;;;;;;;;;;;;2.41;64.30;102321.66;5080224;28;19923;-55
2022/12/03 10:54:00;;;;;;;;;;;;;;;2.42;64.39;102328.59;5081326;28;19924;-53
2022/12/03 10:56:26;;;;;;;;;;;;;;;2.37;64.12;102330.31;5081275;28;20447;-55
2022/12/03 10:58:52;;;;;;;;;;;;;;;2.37;64.09;102330.31;5077556;28;19920;-56
2022/12/03 11:01:18;;;;;;;;;;;;;;;2.35;63.82;102326.81;5069168;28;19963;-54
2022/12/03 11:03:44;;;;;;;;;;;;;;;2.34;64.14;102327.72;5083516;28;20629;-53
2022/12/03 11:06:14;;;;;;;;;;;;;;;2.35;64.23;102325.97;5080469;28;19943;-53
2022/12/03 11:08:41;;;;;;;;;;;;;;;2.35;64.34;102325.97;5081877;28;19924;-52
2022/12/03 11:11:12;;;;;;;;;;;;;;;2.32;64.28;102324.25;5062977;28;19924;-52
2022/12/03 11:13:37;;;;;;;;;;;;;;;2.30;64.22;102320.78;5083997;28;19924;-52
2022/12/03 11:16:04;;;;;;;;;;;;;;;2.30;64.28;102318.19;5080294;28;20369;-55
2022/12/03 11:18:35;;;;;;;;;;;;;;;2.35;63.68;102320.78;5087120;28;19924;-53
2022/12/03 11:21:08;;;;;;;;;;;;;;;2.38;64.01;102311.25;5083272;28;19924;-57
2022/12/03 11:23:45;;;;;;;;;;;;;;;2.46;63.96;102313.00;5073531;28;19920;-55
2022/12/03 11:26:11;;;;;;;;;;;;;;;2.45;63.42;102309.53;5074041;28;19920;-52
2022/12/03 11:28:49;;;;;;;;;;;;;;;2.45;63.42;102304.34;5055899;28;19927;-54
2022/12/03 11:31:32;;;;;;;;;;;;;;;2.41;63.24;102298.28;5080646;28;19927;-52
2022/12/03 11:34:21;;;;;;;;;;;;;;;2.42;63.77;102296.56;5080787;28;19920;-55
2022/12/03 11:37:05;;;;;;;;;;;;;;;2.47;63.81;102291.38;5070629;28;19935;-53
2022/12/03 11:39:48;;;;;;;;;;;;;;;2.44;63.26;102287.91;5089116;28;19922;-53
2022/12/03 11:42:26;;;;;;;;;;;;;;;2.48;63.16;102280.97;5086581;28;19924;-54
2022/12/03 11:45:03;;;;;;;;;;;;;;;2.45;62.79;102291.34;5088340;28;19924;-53
2022/12/03 11:47:36;;;;;;;;;;;;;;;2.35;63.36;102274.03;5084392;28;20343;-54
2022/12/03 11:50:17;;;;;;;;;;;;;;;2.34;63.53;102272.28;5082986;28;19928;-53
2022/12/03 11:52:44;;;;;;;;;;;;;;;2.30;63.90;102281.81;5088665;28;19983;-53
2022/12/03 11:55:12;;;;;;;;;;;;;;;2.29;63.59;102280.06;5085070;28;20039;-53
2022/12/03 11:57:38;;;;;;;;;;;;;;;2.26;63.80;102272.28;5088281;28;20797;-56
2022/12/03 12:00:22;;;;;;;;;;;;;;;2.25;63.86;102273.13;5086322;28;19982;-53
2022/12/03 12:02:48;;;;;;;;;;;;;;;2.28;63.38;102274.00;5071011;28;19923;-53
2022/12/03 12:05:22;;;;;;;;;;;;;;;-147.11;100.00;61570.13;5090400;28;20433;-58
2022/12/03 12:07:48;;;;;;;;;;;;;;;-147.11;100.00;61570.13;5083130;28;20006;-51
2022/12/03 12:10:33;;;;;;;;;;;;;;;-147.11;100.00;61570.13;5083606;28;20465;-63
2022/12/03 12:12:58;;;;;;;;;;;;;;;-147.11;100.00;61570.13;5090339;28;19916;-59
2022/12/03 12:15:40;;;;;;;;;;;;;;;-147.11;100.00;61570.13;5085295;28;19935;-51
2022/12/03 12:18:24;;;;;;;;;;;;;;;-147.11;100.00;61570.13;5086891;28;20733;-57
2022/12/03 12:20:49;;;;;;;;;;;;;;;-147.11;100.00;61570.13;5066410;28;19925;-54
2022/12/03 12:23:26;;;;;;;;;;;;;;;-147.11;100.00;61570.13;5086746;28;19970;-52
2022/12/03 12:25:51;;;;;;;;;;;;;;;-147.11;100.00;61570.13;5086361;28;19973;-57
2022/12/03 12:28:17;;;;;;;;;;;;;;;-147.11;100.00;61570.13;5082275;28;19919;-53
2022/12/03 12:30:42;;;;;;;;;;;;;;;-147.11;100.00;61570.13;5087930;28;19924;-53
2022/12/03 12:33:18;;;;;;;;;;;;;;;-147.11;100.00;61570.13;5091072;28;19923;-53
2022/12/03 12:35:44;;;;;;;;;;;;;;;-147.11;100.00;61570.13;5081612;28;20015;-53
2022/12/03 12:38:14;;;;;;;;;;;;;;;-147.11;100.00;61570.13;5088681;28;19999;-53
2022/12/03 12:40:41;;;;;;;;;;;;;;;-147.11;100.00;61570.13;5086864;28;19924;-53
2022/12/03 12:43:09;;;;;;;;;;;;;;;-147.11;100.00;61570.13;5089391;28;19916;-52
2022/12/03 12:45:36;;;;;;;;;;;;;;;-147.11;100.00;61570.13;5086510;28;19943;-56